sensor_id;sensor_type;location;lat;lon;timestamp;P1;durP1;ratioP1;P2;durP2;ratioP2
84309;SDS011;74488;49.036;11.472;2023-12-20T00:00:27;14.45;;;12.95;;
84309;SDS011;74488;49.036;11.472;2023-12-20T00:01:28;13.50;;;10.48;;
84309;SDS011;74488;49.036;11.472;2023-12-20T00:02:30;22.38;;;20.38;;
84309;SDS011;74488;49.036;11.472;2023-12-20T00:03:31;17.88;;;15.40;;
84309;SDS011;74488;49.036;11.472;2023-12-20T00:04:42;17.77;;;13.35;;
84309;SDS011;74488;49.036;11.472;2023-12-20T00:05:44;16.83;;;12.50;;
84309;SDS011;74488;49.036;11.472;2023-12-20T00:06:46;15.35;;;11.35;;
84309;SDS011;74488;49.036;11.472;2023-12-20T00:07:48;16.50;;;14.88;;
84309;SDS011;74488;49.036;11.472;2023-12-20T00:08:50;17.23;;;14.65;;
84309;SDS011;74488;49.036;11.472;2023-12-20T00:09:51;15.93;;;13.45;;
84309;SDS011;74488;49.036;11.472;2023-12-20T00:10:53;15.30;;;11.45;;
84309;SDS011;74488;49.036;11.472;2023-12-20T00:11:54;18.15;;;12.00;;
84309;SDS011;74488;49.036;11.472;2023-12-20T00:12:56;18.13;;;11.82;;
84309;SDS011;74488;49.036;11.472;2023-12-20T00:13:57;16.55;;;11.93;;
84309;SDS011;74488;49.036;11.472;2023-12-20T00:14:59;11.10;;;9.68;;
84309;SDS011;74488;49.036;11.472;2023-12-20T00:16:00;14.80;;;10.32;;
84309;SDS011;74488;49.036;11.472;2023-12-20T00:17:02;14.10;;;10.85;;
84309;SDS011;74488;49.036;11.472;2023-12-20T00:18:04;19.55;;;17.75;;
84309;SDS011;74488;49.036;11.472;2023-12-20T00:19:06;13.75;;;9.23;;
84309;SDS011;74488;49.036;11.472;2023-12-20T00:20:09;11.38;;;8.68;;
84309;SDS011;74488;49.036;11.472;2023-12-20T00:21:11;11.23;;;10.05;;
84309;SDS011;74488;49.036;11.472;2023-12-20T00:22:12;14.68;;;11.02;;
84309;SDS011;74488;49.036;11.472;2023-12-20T00:23:14;11.23;;;9.70;;
84309;SDS011;74488;49.036;11.472;2023-12-20T00:24:16;10.80;;;8.15;;
84309;SDS011;74488;49.036;11.472;2023-12-20T00:25:17;10.13;;;7.65;;
84309;SDS011;74488;49.036;11.472;2023-12-20T00:26:19;14.85;;;13.55;;
84309;SDS011;74488;49.036;11.472;2023-12-20T00:27:20;12.15;;;7.82;;
84309;SDS011;74488;49.036;11.472;2023-12-20T00:28:22;9.82;;;8.07;;
84309;SDS011;74488;49.036;11.472;2023-12-20T00:29:24;13.98;;;12.77;;
84309;SDS011;74488;49.036;11.472;2023-12-20T00:30:25;8.80;;;7.57;;
84309;SDS011;74488;49.036;11.472;2023-12-20T00:31:27;9.18;;;7.70;;
84309;SDS011;74488;49.036;11.472;2023-12-20T00:32:29;8.45;;;7.28;;
84309;SDS011;74488;49.036;11.472;2023-12-20T00:33:30;8.85;;;8.02;;
84309;SDS011;74488;49.036;11.472;2023-12-20T00:34:32;7.80;;;7.00;;
84309;SDS011;74488;49.036;11.472;2023-12-20T00:35:33;8.10;;;7.15;;
84309;SDS011;74488;49.036;11.472;2023-12-20T00:36:35;8.20;;;7.50;;
84309;SDS011;74488;49.036;11.472;2023-12-20T00:37:36;9.82;;;8.82;;
84309;SDS011;74488;49.036;11.472;2023-12-20T00:38:38;9.88;;;8.35;;
84309;SDS011;74488;49.036;11.472;2023-12-20T00:39:39;14.45;;;13.15;;
84309;SDS011;74488;49.036;11.472;2023-12-20T00:40:41;9.80;;;7.50;;
84309;SDS011;74488;49.036;11.472;2023-12-20T00:41:42;8.40;;;7.50;;
84309;SDS011;74488;49.036;11.472;2023-12-20T00:42:44;8.73;;;7.90;;
84309;SDS011;74488;49.036;11.472;2023-12-20T00:43:48;8.95;;;8.10;;
84309;SDS011;74488;49.036;11.472;2023-12-20T00:44:50;9.45;;;8.55;;
84309;SDS011;74488;49.036;11.472;2023-12-20T00:45:52;9.60;;;6.93;;
84309;SDS011;74488;49.036;11.472;2023-12-20T00:46:53;7.97;;;6.63;;
84309;SDS011;74488;49.036;11.472;2023-12-20T00:47:55;8.45;;;7.38;;
84309;SDS011;74488;49.036;11.472;2023-12-20T00:48:56;8.60;;;7.82;;
84309;SDS011;74488;49.036;11.472;2023-12-20T00:49:58;10.18;;;9.18;;
84309;SDS011;74488;49.036;11.472;2023-12-20T00:51:00;9.68;;;7.43;;
84309;SDS011;74488;49.036;11.472;2023-12-20T00:52:01;9.68;;;8.68;;
84309;SDS011;74488;49.036;11.472;2023-12-20T00:53:03;8.93;;;8.05;;
84309;SDS011;74488;49.036;11.472;2023-12-20T00:54:04;9.07;;;8.18;;
84309;SDS011;74488;49.036;11.472;2023-12-20T00:55:06;8.82;;;7.90;;
84309;SDS011;74488;49.036;11.472;2023-12-20T00:56:08;10.95;;;8.57;;
84309;SDS011;74488;49.036;11.472;2023-12-20T00:57:09;10.80;;;8.40;;
84309;SDS011;74488;49.036;11.472;2023-12-20T00:58:11;10.35;;;8.98;;
84309;SDS011;74488;49.036;11.472;2023-12-20T00:59:12;9.90;;;8.40;;
84309;SDS011;74488;49.036;11.472;2023-12-20T01:00:14;10.52;;;9.43;;
84309;SDS011;74488;49.036;11.472;2023-12-20T01:01:15;11.80;;;8.88;;
84309;SDS011;74488;49.036;11.472;2023-12-20T01:02:17;10.93;;;8.68;;
84309;SDS011;74488;49.036;11.472;2023-12-20T01:03:19;13.23;;;9.02;;
84309;SDS011;74488;49.036;11.472;2023-12-20T01:04:20;10.88;;;8.48;;
84309;SDS011;74488;49.036;11.472;2023-12-20T01:05:22;10.43;;;7.93;;
84309;SDS011;74488;49.036;11.472;2023-12-20T01:06:24;11.60;;;9.10;;
84309;SDS011;74488;49.036;11.472;2023-12-20T01:07:26;11.18;;;9.90;;
84309;SDS011;74488;49.036;11.472;2023-12-20T01:08:27;7.97;;;7.22;;
84309;SDS011;74488;49.036;11.472;2023-12-20T01:09:29;8.88;;;7.82;;
84309;SDS011;74488;49.036;11.472;2023-12-20T01:10:30;10.02;;;8.00;;
84309;SDS011;74488;49.036;11.472;2023-12-20T01:11:32;7.53;;;6.82;;
84309;SDS011;74488;49.036;11.472;2023-12-20T01:12:35;9.05;;;8.15;;
84309;SDS011;74488;49.036;11.472;2023-12-20T01:13:37;9.63;;;8.18;;
84309;SDS011;74488;49.036;11.472;2023-12-20T01:14:39;8.43;;;7.63;;
84309;SDS011;74488;49.036;11.472;2023-12-20T01:15:41;9.27;;;8.07;;
84309;SDS011;74488;49.036;11.472;2023-12-20T01:16:42;13.80;;;12.60;;
84309;SDS011;74488;49.036;11.472;2023-12-20T01:17:44;8.95;;;6.80;;
84309;SDS011;74488;49.036;11.472;2023-12-20T01:18:46;8.13;;;7.43;;
84309;SDS011;74488;49.036;11.472;2023-12-20T01:19:47;10.77;;;7.57;;
84309;SDS011;74488;49.036;11.472;2023-12-20T01:20:49;7.50;;;6.88;;
84309;SDS011;74488;49.036;11.472;2023-12-20T01:21:50;8.68;;;7.88;;
84309;SDS011;74488;49.036;11.472;2023-12-20T01:22:52;9.63;;;8.70;;
84309;SDS011;74488;49.036;11.472;2023-12-20T01:23:54;7.97;;;7.10;;
84309;SDS011;74488;49.036;11.472;2023-12-20T01:24:55;8.70;;;7.57;;
84309;SDS011;74488;49.036;11.472;2023-12-20T01:25:57;9.25;;;8.45;;
84309;SDS011;74488;49.036;11.472;2023-12-20T01:27:00;8.93;;;7.93;;
84309;SDS011;74488;49.036;11.472;2023-12-20T01:28:02;9.57;;;8.38;;
84309;SDS011;74488;49.036;11.472;2023-12-20T01:29:04;10.48;;;7.85;;
84309;SDS011;74488;49.036;11.472;2023-12-20T01:30:06;8.50;;;7.75;;
84309;SDS011;74488;49.036;11.472;2023-12-20T01:31:08;9.27;;;8.38;;
84309;SDS011;74488;49.036;11.472;2023-12-20T01:32:10;9.65;;;8.65;;
84309;SDS011;74488;49.036;11.472;2023-12-20T01:33:11;9.25;;;8.27;;
84309;SDS011;74488;49.036;11.472;2023-12-20T01:34:13;10.07;;;7.63;;
84309;SDS011;74488;49.036;11.472;2023-12-20T01:35:15;10.13;;;9.13;;
84309;SDS011;74488;49.036;11.472;2023-12-20T01:36:16;9.27;;;8.38;;
84309;SDS011;74488;49.036;11.472;2023-12-20T01:37:20;9.32;;;8.45;;
84309;SDS011;74488;49.036;11.472;2023-12-20T01:38:22;11.60;;;9.00;;
84309;SDS011;74488;49.036;11.472;2023-12-20T01:39:23;10.68;;;9.60;;
84309;SDS011;74488;49.036;11.472;2023-12-20T01:40:30;9.65;;;8.45;;
84309;SDS011;74488;49.036;11.472;2023-12-20T01:41:31;9.88;;;8.45;;
84309;SDS011;74488;49.036;11.472;2023-12-20T01:42:33;10.07;;;9.07;;
84309;SDS011;74488;49.036;11.472;2023-12-20T01:43:34;10.85;;;8.75;;
84309;SDS011;74488;49.036;11.472;2023-12-20T01:44:50;9.20;;;8.32;;
84309;SDS011;74488;49.036;11.472;2023-12-20T01:45:52;11.27;;;8.63;;
84309;SDS011;74488;49.036;11.472;2023-12-20T01:46:53;9.55;;;8.63;;
84309;SDS011;74488;49.036;11.472;2023-12-20T01:47:56;12.18;;;9.10;;
84309;SDS011;74488;49.036;11.472;2023-12-20T01:48:59;10.50;;;9.48;;
84309;SDS011;74488;49.036;11.472;2023-12-20T01:50:02;12.45;;;8.80;;
84309;SDS011;74488;49.036;11.472;2023-12-20T01:51:05;10.43;;;8.80;;
84309;SDS011;74488;49.036;11.472;2023-12-20T01:52:06;11.45;;;9.55;;
84309;SDS011;74488;49.036;11.472;2023-12-20T01:53:13;10.15;;;9.02;;
84309;SDS011;74488;49.036;11.472;2023-12-20T01:54:15;13.30;;;10.02;;
84309;SDS011;74488;49.036;11.472;2023-12-20T01:55:18;10.13;;;9.20;;
84309;SDS011;74488;49.036;11.472;2023-12-20T01:56:21;13.02;;;9.75;;
84309;SDS011;74488;49.036;11.472;2023-12-20T01:57:22;11.10;;;9.50;;
84309;SDS011;74488;49.036;11.472;2023-12-20T01:58:24;11.52;;;9.65;;
84309;SDS011;74488;49.036;11.472;2023-12-20T01:59:26;11.38;;;9.93;;
84309;SDS011;74488;49.036;11.472;2023-12-20T02:00:30;13.77;;;9.73;;
84309;SDS011;74488;49.036;11.472;2023-12-20T02:01:32;11.07;;;9.95;;
84309;SDS011;74488;49.036;11.472;2023-12-20T02:02:34;11.90;;;10.32;;
84309;SDS011;74488;49.036;11.472;2023-12-20T02:03:38;11.15;;;9.88;;
84309;SDS011;74488;49.036;11.472;2023-12-20T02:04:41;14.50;;;13.20;;
84309;SDS011;74488;49.036;11.472;2023-12-20T02:05:44;12.95;;;10.77;;
84309;SDS011;74488;49.036;11.472;2023-12-20T02:06:48;13.27;;;11.95;;
84309;SDS011;74488;49.036;11.472;2023-12-20T02:07:53;11.02;;;9.18;;
84309;SDS011;74488;49.036;11.472;2023-12-20T02:08:55;13.88;;;9.88;;
84309;SDS011;74488;49.036;11.472;2023-12-20T02:09:56;15.40;;;14.00;;
84309;SDS011;74488;49.036;11.472;2023-12-20T02:10:58;13.65;;;9.15;;
84309;SDS011;74488;49.036;11.472;2023-12-20T02:12:00;13.35;;;9.55;;
84309;SDS011;74488;49.036;11.472;2023-12-20T02:13:01;12.38;;;9.13;;
84309;SDS011;74488;49.036;11.472;2023-12-20T02:14:03;11.90;;;10.43;;
84309;SDS011;74488;49.036;11.472;2023-12-20T02:15:05;12.60;;;10.23;;
84309;SDS011;74488;49.036;11.472;2023-12-20T02:16:07;16.58;;;15.18;;
84309;SDS011;74488;49.036;11.472;2023-12-20T02:17:09;11.07;;;8.88;;
84309;SDS011;74488;49.036;11.472;2023-12-20T02:18:10;15.63;;;10.10;;
84309;SDS011;74488;49.036;11.472;2023-12-20T02:19:16;15.77;;;14.48;;
84309;SDS011;74488;49.036;11.472;2023-12-20T02:20:19;11.25;;;9.02;;
84309;SDS011;74488;49.036;11.472;2023-12-20T02:21:33;10.63;;;9.52;;
84309;SDS011;74488;49.036;11.472;2023-12-20T02:22:36;13.73;;;9.32;;
84309;SDS011;74488;49.036;11.472;2023-12-20T02:23:37;9.77;;;8.77;;
84309;SDS011;74488;49.036;11.472;2023-12-20T02:24:39;10.13;;;9.13;;
84309;SDS011;74488;49.036;11.472;2023-12-20T02:25:40;10.68;;;9.68;;
84309;SDS011;74488;49.036;11.472;2023-12-20T02:26:42;12.60;;;9.45;;
84309;SDS011;74488;49.036;11.472;2023-12-20T02:27:47;11.68;;;9.43;;
84309;SDS011;74488;49.036;11.472;2023-12-20T02:28:50;11.10;;;9.02;;
84309;SDS011;74488;49.036;11.472;2023-12-20T02:29:51;13.88;;;10.57;;
84309;SDS011;74488;49.036;11.472;2023-12-20T02:30:53;10.00;;;8.90;;
84309;SDS011;74488;49.036;11.472;2023-12-20T02:31:54;9.38;;;8.35;;
84309;SDS011;74488;49.036;11.472;2023-12-20T02:32:56;11.32;;;10.10;;
84309;SDS011;74488;49.036;11.472;2023-12-20T02:33:57;10.48;;;9.23;;
84309;SDS011;74488;49.036;11.472;2023-12-20T02:34:59;11.25;;;9.18;;
84309;SDS011;74488;49.036;11.472;2023-12-20T02:36:00;11.52;;;9.63;;
84309;SDS011;74488;49.036;11.472;2023-12-20T02:37:02;10.88;;;8.93;;
84309;SDS011;74488;49.036;11.472;2023-12-20T02:38:04;11.77;;;10.57;;
84309;SDS011;74488;49.036;11.472;2023-12-20T02:39:05;11.05;;;9.95;;
84309;SDS011;74488;49.036;11.472;2023-12-20T02:40:07;11.75;;;10.05;;
84309;SDS011;74488;49.036;11.472;2023-12-20T02:41:09;11.43;;;10.23;;
84309;SDS011;74488;49.036;11.472;2023-12-20T02:42:10;13.13;;;10.95;;
84309;SDS011;74488;49.036;11.472;2023-12-20T02:43:12;14.30;;;10.43;;
84309;SDS011;74488;49.036;11.472;2023-12-20T02:44:14;14.30;;;11.10;;
84309;SDS011;74488;49.036;11.472;2023-12-20T02:45:15;12.23;;;10.95;;
84309;SDS011;74488;49.036;11.472;2023-12-20T02:46:17;14.80;;;11.65;;
84309;SDS011;74488;49.036;11.472;2023-12-20T02:47:19;13.23;;;11.43;;
84309;SDS011;74488;49.036;11.472;2023-12-20T02:48:20;13.63;;;11.68;;
84309;SDS011;74488;49.036;11.472;2023-12-20T02:49:22;12.20;;;10.55;;
84309;SDS011;74488;49.036;11.472;2023-12-20T02:50:24;17.73;;;16.10;;
84309;SDS011;74488;49.036;11.472;2023-12-20T02:51:25;13.75;;;11.38;;
84309;SDS011;74488;49.036;11.472;2023-12-20T02:52:27;16.23;;;11.48;;
84309;SDS011;74488;49.036;11.472;2023-12-20T02:53:30;15.40;;;11.70;;
84309;SDS011;74488;49.036;11.472;2023-12-20T02:54:31;15.65;;;12.30;;
84309;SDS011;74488;49.036;11.472;2023-12-20T02:55:33;13.00;;;11.68;;
84309;SDS011;74488;49.036;11.472;2023-12-20T02:56:34;15.20;;;11.95;;
84309;SDS011;74488;49.036;11.472;2023-12-20T02:57:36;14.15;;;11.82;;
84309;SDS011;74488;49.036;11.472;2023-12-20T02:58:37;12.90;;;10.80;;
84309;SDS011;74488;49.036;11.472;2023-12-20T02:59:39;16.45;;;12.90;;
84309;SDS011;74488;49.036;11.472;2023-12-20T03:00:40;12.68;;;11.48;;
84309;SDS011;74488;49.036;11.472;2023-12-20T03:01:43;14.90;;;11.45;;
84309;SDS011;74488;49.036;11.472;2023-12-20T03:02:46;13.60;;;11.80;;
84309;SDS011;74488;49.036;11.472;2023-12-20T03:03:48;19.67;;;18.02;;
84309;SDS011;74488;49.036;11.472;2023-12-20T03:04:49;13.95;;;12.55;;
84309;SDS011;74488;49.036;11.472;2023-12-20T03:05:51;12.85;;;11.38;;
84309;SDS011;74488;49.036;11.472;2023-12-20T03:06:53;13.75;;;11.85;;
84309;SDS011;74488;49.036;11.472;2023-12-20T03:07:54;13.73;;;11.93;;
84309;SDS011;74488;49.036;11.472;2023-12-20T03:08:56;13.73;;;12.32;;
84309;SDS011;74488;49.036;11.472;2023-12-20T03:09:57;13.35;;;11.35;;
84309;SDS011;74488;49.036;11.472;2023-12-20T03:11:18;13.02;;;11.45;;
84309;SDS011;74488;49.036;11.472;2023-12-20T03:12:20;15.02;;;11.48;;
84309;SDS011;74488;49.036;11.472;2023-12-20T03:13:21;15.27;;;11.85;;
84309;SDS011;74488;49.036;11.472;2023-12-20T03:14:23;12.48;;;10.75;;
84309;SDS011;74488;49.036;11.472;2023-12-20T03:15:25;12.30;;;10.55;;
84309;SDS011;74488;49.036;11.472;2023-12-20T03:16:26;12.80;;;11.20;;
84309;SDS011;74488;49.036;11.472;2023-12-20T03:17:28;13.07;;;11.60;;
84309;SDS011;74488;49.036;11.472;2023-12-20T03:18:29;13.40;;;9.98;;
84309;SDS011;74488;49.036;11.472;2023-12-20T03:19:31;12.43;;;11.10;;
84309;SDS011;74488;49.036;11.472;2023-12-20T03:20:32;13.20;;;10.98;;
84309;SDS011;74488;49.036;11.472;2023-12-20T03:21:35;15.13;;;11.80;;
84309;SDS011;74488;49.036;11.472;2023-12-20T03:22:37;13.50;;;10.40;;
84309;SDS011;74488;49.036;11.472;2023-12-20T03:23:38;13.40;;;10.85;;
84309;SDS011;74488;49.036;11.472;2023-12-20T03:24:40;13.90;;;12.07;;
84309;SDS011;74488;49.036;11.472;2023-12-20T03:25:41;11.20;;;9.73;;
84309;SDS011;74488;49.036;11.472;2023-12-20T03:26:43;13.45;;;11.10;;
84309;SDS011;74488;49.036;11.472;2023-12-20T03:27:44;13.40;;;11.80;;
84309;SDS011;74488;49.036;11.472;2023-12-20T03:28:46;13.27;;;11.38;;
84309;SDS011;74488;49.036;11.472;2023-12-20T03:29:47;17.30;;;15.70;;
84309;SDS011;74488;49.036;11.472;2023-12-20T03:30:49;16.25;;;11.80;;
84309;SDS011;74488;49.036;11.472;2023-12-20T03:31:51;13.88;;;10.43;;
84309;SDS011;74488;49.036;11.472;2023-12-20T03:32:52;13.25;;;9.55;;
84309;SDS011;74488;49.036;11.472;2023-12-20T03:33:54;13.48;;;10.55;;
84309;SDS011;74488;49.036;11.472;2023-12-20T03:34:55;11.68;;;10.43;;
84309;SDS011;74488;49.036;11.472;2023-12-20T03:35:57;13.05;;;11.18;;
84309;SDS011;74488;49.036;11.472;2023-12-20T03:36:58;15.18;;;10.52;;
84309;SDS011;74488;49.036;11.472;2023-12-20T03:38:00;11.65;;;10.20;;
84309;SDS011;74488;49.036;11.472;2023-12-20T03:39:02;12.93;;;9.30;;
84309;SDS011;74488;49.036;11.472;2023-12-20T03:40:04;11.25;;;9.02;;
84309;SDS011;74488;49.036;11.472;2023-12-20T03:41:06;12.25;;;10.48;;
84309;SDS011;74488;49.036;11.472;2023-12-20T03:42:08;11.35;;;9.80;;
84309;SDS011;74488;49.036;11.472;2023-12-20T03:43:09;11.50;;;10.13;;
84309;SDS011;74488;49.036;11.472;2023-12-20T03:44:11;11.50;;;9.25;;
84309;SDS011;74488;49.036;11.472;2023-12-20T03:45:13;12.10;;;10.75;;
84309;SDS011;74488;49.036;11.472;2023-12-20T03:46:14;12.25;;;9.70;;
84309;SDS011;74488;49.036;11.472;2023-12-20T03:47:16;12.80;;;9.48;;
84309;SDS011;74488;49.036;11.472;2023-12-20T03:48:17;11.13;;;9.48;;
84309;SDS011;74488;49.036;11.472;2023-12-20T03:49:19;12.98;;;11.00;;
84309;SDS011;74488;49.036;11.472;2023-12-20T03:50:21;11.45;;;9.27;;
84309;SDS011;74488;49.036;11.472;2023-12-20T03:51:24;10.77;;;9.68;;
84309;SDS011;74488;49.036;11.472;2023-12-20T03:52:25;10.93;;;9.23;;
84309;SDS011;74488;49.036;11.472;2023-12-20T03:53:27;11.38;;;9.55;;
84309;SDS011;74488;49.036;11.472;2023-12-20T03:54:28;11.82;;;9.65;;
84309;SDS011;74488;49.036;11.472;2023-12-20T03:55:30;11.02;;;9.57;;
84309;SDS011;74488;49.036;11.472;2023-12-20T03:56:31;11.43;;;8.68;;
84309;SDS011;74488;49.036;11.472;2023-12-20T03:57:33;10.63;;;8.27;;
84309;SDS011;74488;49.036;11.472;2023-12-20T03:58:34;9.15;;;8.30;;
84309;SDS011;74488;49.036;11.472;2023-12-20T03:59:36;14.85;;;13.55;;
84309;SDS011;74488;49.036;11.472;2023-12-20T04:00:38;10.63;;;8.60;;
84309;SDS011;74488;49.036;11.472;2023-12-20T04:01:43;9.45;;;8.55;;
84309;SDS011;74488;49.036;11.472;2023-12-20T04:02:45;6.32;;;5.45;;
84309;SDS011;74488;49.036;11.472;2023-12-20T04:03:47;8.23;;;7.15;;
84309;SDS011;74488;49.036;11.472;2023-12-20T04:04:48;12.38;;;11.27;;
84309;SDS011;74488;49.036;11.472;2023-12-20T04:05:50;8.05;;;7.25;;
84309;SDS011;74488;49.036;11.472;2023-12-20T04:06:52;6.88;;;6.18;;
84309;SDS011;74488;49.036;11.472;2023-12-20T04:07:53;7.20;;;6.60;;
84309;SDS011;74488;49.036;11.472;2023-12-20T04:08:55;6.95;;;6.28;;
84309;SDS011;74488;49.036;11.472;2023-12-20T04:09:56;6.80;;;6.20;;
84309;SDS011;74488;49.036;11.472;2023-12-20T04:10:58;7.38;;;6.68;;
84309;SDS011;74488;49.036;11.472;2023-12-20T04:11:59;7.68;;;6.97;;
84309;SDS011;74488;49.036;11.472;2023-12-20T04:13:01;7.43;;;6.72;;
84309;SDS011;74488;49.036;11.472;2023-12-20T04:14:02;8.45;;;7.13;;
84309;SDS011;74488;49.036;11.472;2023-12-20T04:15:06;7.13;;;6.50;;
84309;SDS011;74488;49.036;11.472;2023-12-20T04:16:11;8.18;;;7.45;;
84309;SDS011;74488;49.036;11.472;2023-12-20T04:17:12;10.07;;;9.07;;
84309;SDS011;74488;49.036;11.472;2023-12-20T04:18:14;8.15;;;7.38;;
84309;SDS011;74488;49.036;11.472;2023-12-20T04:19:15;10.30;;;9.35;;
84309;SDS011;74488;49.036;11.472;2023-12-20T04:20:17;9.30;;;8.40;;
84309;SDS011;74488;49.036;11.472;2023-12-20T04:21:18;8.32;;;6.97;;
84309;SDS011;74488;49.036;11.472;2023-12-20T04:22:20;13.52;;;12.43;;
84309;SDS011;74488;49.036;11.472;2023-12-20T04:23:22;11.57;;;10.48;;
84309;SDS011;74488;49.036;11.472;2023-12-20T04:24:23;9.98;;;8.73;;
84309;SDS011;74488;49.036;11.472;2023-12-20T04:25:25;9.75;;;8.75;;
84309;SDS011;74488;49.036;11.472;2023-12-20T04:26:26;8.57;;;7.55;;
84309;SDS011;74488;49.036;11.472;2023-12-20T04:27:28;7.72;;;6.78;;
84309;SDS011;74488;49.036;11.472;2023-12-20T04:28:29;8.57;;;7.68;;
84309;SDS011;74488;49.036;11.472;2023-12-20T04:29:31;8.85;;;8.05;;
84309;SDS011;74488;49.036;11.472;2023-12-20T04:30:33;13.18;;;12.18;;
84309;SDS011;74488;49.036;11.472;2023-12-20T04:31:34;7.93;;;7.22;;
84309;SDS011;74488;49.036;11.472;2023-12-20T04:32:36;7.88;;;7.18;;
84309;SDS011;74488;49.036;11.472;2023-12-20T04:33:37;7.35;;;6.70;;
84309;SDS011;74488;49.036;11.472;2023-12-20T04:34:39;8.60;;;7.80;;
84309;SDS011;74488;49.036;11.472;2023-12-20T04:35:40;7.53;;;6.80;;
84309;SDS011;74488;49.036;11.472;2023-12-20T04:36:43;8.18;;;7.45;;
84309;SDS011;74488;49.036;11.472;2023-12-20T04:37:45;8.00;;;6.53;;
84309;SDS011;74488;49.036;11.472;2023-12-20T04:38:47;8.32;;;7.53;;
84309;SDS011;74488;49.036;11.472;2023-12-20T04:39:49;7.85;;;6.97;;
84309;SDS011;74488;49.036;11.472;2023-12-20T04:40:51;8.82;;;6.75;;
84309;SDS011;74488;49.036;11.472;2023-12-20T04:41:52;6.47;;;5.82;;
84309;SDS011;74488;49.036;11.472;2023-12-20T04:42:54;6.85;;;6.15;;
84309;SDS011;74488;49.036;11.472;2023-12-20T04:43:56;6.55;;;5.95;;
84309;SDS011;74488;49.036;11.472;2023-12-20T04:44:57;5.82;;;5.25;;
84309;SDS011;74488;49.036;11.472;2023-12-20T04:45:58;6.80;;;6.20;;
84309;SDS011;74488;49.036;11.472;2023-12-20T04:47:00;7.07;;;6.35;;
84309;SDS011;74488;49.036;11.472;2023-12-20T04:48:02;6.93;;;6.40;;
84309;SDS011;74488;49.036;11.472;2023-12-20T04:49:04;6.55;;;5.95;;
84309;SDS011;74488;49.036;11.472;2023-12-20T04:50:06;10.43;;;9.63;;
84309;SDS011;74488;49.036;11.472;2023-12-20T04:51:08;4.97;;;4.55;;
84309;SDS011;74488;49.036;11.472;2023-12-20T04:52:09;7.45;;;5.30;;
84309;SDS011;74488;49.036;11.472;2023-12-20T04:53:11;7.18;;;6.57;;
84309;SDS011;74488;49.036;11.472;2023-12-20T04:54:12;5.70;;;5.20;;
84309;SDS011;74488;49.036;11.472;2023-12-20T04:55:15;5.57;;;4.65;;
84309;SDS011;74488;49.036;11.472;2023-12-20T04:56:16;7.60;;;7.07;;
84309;SDS011;74488;49.036;11.472;2023-12-20T04:57:18;5.80;;;5.20;;
84309;SDS011;74488;49.036;11.472;2023-12-20T04:58:19;6.35;;;5.80;;
84309;SDS011;74488;49.036;11.472;2023-12-20T04:59:21;5.90;;;5.07;;
84309;SDS011;74488;49.036;11.472;2023-12-20T05:00:22;4.88;;;4.47;;
84309;SDS011;74488;49.036;11.472;2023-12-20T05:01:24;6.55;;;5.95;;
84309;SDS011;74488;49.036;11.472;2023-12-20T05:02:25;5.30;;;4.80;;
84309;SDS011;74488;49.036;11.472;2023-12-20T05:03:27;6.40;;;5.90;;
84309;SDS011;74488;49.036;11.472;2023-12-20T05:04:28;11.18;;;10.45;;
84309;SDS011;74488;49.036;11.472;2023-12-20T05:05:30;5.43;;;4.53;;
84309;SDS011;74488;49.036;11.472;2023-12-20T05:06:32;6.90;;;6.30;;
84309;SDS011;74488;49.036;11.472;2023-12-20T05:07:33;5.93;;;5.43;;
84309;SDS011;74488;49.036;11.472;2023-12-20T05:08:35;5.53;;;5.13;;
84309;SDS011;74488;49.036;11.472;2023-12-20T05:09:36;5.10;;;4.60;;
84309;SDS011;74488;49.036;11.472;2023-12-20T05:10:38;4.40;;;4.00;;
84309;SDS011;74488;49.036;11.472;2023-12-20T05:11:41;6.32;;;5.60;;
84309;SDS011;74488;49.036;11.472;2023-12-20T05:12:42;11.70;;;6.75;;
84309;SDS011;74488;49.036;11.472;2023-12-20T05:13:44;8.27;;;7.45;;
84309;SDS011;74488;49.036;11.472;2023-12-20T05:14:51;4.50;;;4.07;;
84309;SDS011;74488;49.036;11.472;2023-12-20T05:15:53;8.98;;;6.05;;
84309;SDS011;74488;49.036;11.472;2023-12-20T05:16:55;8.05;;;6.80;;
84309;SDS011;74488;49.036;11.472;2023-12-20T05:17:57;12.70;;;9.18;;
84309;SDS011;74488;49.036;11.472;2023-12-20T05:18:59;10.55;;;8.35;;
84309;SDS011;74488;49.036;11.472;2023-12-20T05:20:02;8.93;;;7.18;;
84309;SDS011;74488;49.036;11.472;2023-12-20T05:21:04;5.15;;;4.75;;
84309;SDS011;74488;49.036;11.472;2023-12-20T05:22:05;6.18;;;4.07;;
84309;SDS011;74488;49.036;11.472;2023-12-20T05:23:07;13.35;;;12.18;;
84309;SDS011;74488;49.036;11.472;2023-12-20T05:24:09;3.75;;;3.45;;
84309;SDS011;74488;49.036;11.472;2023-12-20T05:25:10;10.50;;;7.95;;
84309;SDS011;74488;49.036;11.472;2023-12-20T05:26:12;5.45;;;4.85;;
84309;SDS011;74488;49.036;11.472;2023-12-20T05:27:13;3.20;;;2.92;;
84309;SDS011;74488;49.036;11.472;2023-12-20T05:28:15;3.63;;;3.42;;
84309;SDS011;74488;49.036;11.472;2023-12-20T05:29:16;3.05;;;2.85;;
84309;SDS011;74488;49.036;11.472;2023-12-20T05:30:18;31.80;;;19.60;;
84309;SDS011;74488;49.036;11.472;2023-12-20T05:31:19;6.07;;;5.47;;
84309;SDS011;74488;49.036;11.472;2023-12-20T05:32:21;3.38;;;3.17;;
84309;SDS011;74488;49.036;11.472;2023-12-20T05:33:22;3.15;;;2.83;;
84309;SDS011;74488;49.036;11.472;2023-12-20T05:34:24;5.93;;;4.90;;
84309;SDS011;74488;49.036;11.472;2023-12-20T05:35:26;10.70;;;9.85;;
84309;SDS011;74488;49.036;11.472;2023-12-20T05:36:27;6.05;;;4.68;;
84309;SDS011;74488;49.036;11.472;2023-12-20T05:37:29;8.75;;;7.13;;
84309;SDS011;74488;49.036;11.472;2023-12-20T05:38:31;14.60;;;13.27;;
84309;SDS011;74488;49.036;11.472;2023-12-20T05:39:32;5.82;;;5.15;;
84309;SDS011;74488;49.036;11.472;2023-12-20T05:40:34;4.13;;;3.83;;
84309;SDS011;74488;49.036;11.472;2023-12-20T05:41:35;4.22;;;3.83;;
84309;SDS011;74488;49.036;11.472;2023-12-20T05:42:37;3.97;;;3.58;;
84309;SDS011;74488;49.036;11.472;2023-12-20T05:43:39;4.50;;;4.20;;
84309;SDS011;74488;49.036;11.472;2023-12-20T05:44:40;9.73;;;9.00;;
84309;SDS011;74488;49.036;11.472;2023-12-20T05:45:42;2.85;;;2.63;;
84309;SDS011;74488;49.036;11.472;2023-12-20T05:46:43;3.03;;;2.83;;
84309;SDS011;74488;49.036;11.472;2023-12-20T05:47:45;3.05;;;2.85;;
84309;SDS011;74488;49.036;11.472;2023-12-20T05:48:47;3.15;;;2.95;;
84309;SDS011;74488;49.036;11.472;2023-12-20T05:49:49;4.78;;;3.72;;
84309;SDS011;74488;49.036;11.472;2023-12-20T05:50:51;5.25;;;4.80;;
84309;SDS011;74488;49.036;11.472;2023-12-20T05:51:53;3.13;;;2.92;;
84309;SDS011;74488;49.036;11.472;2023-12-20T05:52:55;5.47;;;4.97;;
84309;SDS011;74488;49.036;11.472;2023-12-20T05:53:56;11.93;;;11.00;;
84309;SDS011;74488;49.036;11.472;2023-12-20T05:54:58;10.27;;;7.85;;
84309;SDS011;74488;49.036;11.472;2023-12-20T05:56:02;6.70;;;5.53;;
84309;SDS011;74488;49.036;11.472;2023-12-20T05:57:05;6.18;;;5.13;;
84309;SDS011;74488;49.036;11.472;2023-12-20T05:58:06;5.30;;;4.95;;
84309;SDS011;74488;49.036;11.472;2023-12-20T05:59:08;3.72;;;3.42;;
84309;SDS011;74488;49.036;11.472;2023-12-20T06:00:10;3.70;;;3.38;;
84309;SDS011;74488;49.036;11.472;2023-12-20T06:01:13;4.32;;;3.92;;
84309;SDS011;74488;49.036;11.472;2023-12-20T06:02:15;4.28;;;2.80;;
84309;SDS011;74488;49.036;11.472;2023-12-20T06:03:17;2.22;;;2.13;;